This is the latest recevied weather packets stored in our database for station/object KB1ZFK. If no packets are shown the sender has not sent any weather packets the latest 1 day(s).
| Time | Temp. | Humidity | Pressure | Rain* | Wind** | Luminosity | Snow |
|---|---|---|---|---|---|---|---|
| 1836274839 | 12.22° C | 70% | 1021.2 hPa | 0 mm | 0 m/s | 0 W/m² | - |
| 1836274536 | 12.22° C | 69% | 1020.9 hPa | 0 mm | 0 m/s | 0 W/m² | - |
| 1836274390 | 12.22° C | 70% | 1021.1 hPa | 0 mm | 0 m/s | 0 W/m² | - |
| 1836274234 | 12.78° C | 69% | 1020.8 hPa | 0 mm | 0 m/s | 0 W/m² | - |
| 1836273928 | 12.78° C | 68% | 1020.9 hPa | 0 mm | 0.45 m/s, 298° | 0 W/m² | - |
| 1778047351 | 16.67° C | 69% | 1008.4 hPa | 0 mm | 0 m/s | 0 W/m² | - |
| 1778047048 | 16.67° C | 69% | 1008.3 hPa | 0 mm | 0 m/s | 0 W/m² | - |
| 1778046745 | 16.67° C | 69% | 1008.3 hPa | 0 mm | 0.45 m/s, 337° | 0 W/m² | - |
| 1778046441 | 17.22° C | 68% | 1008.4 hPa | 0 mm | 0 m/s | 0 W/m² | - |
| 1778046138 | 16.67° C | 68% | 1008.5 hPa | 0 mm | 0 m/s | 0 W/m² | - |
| 1778045835 | 16.67° C | 69% | 1008.5 hPa | 0 mm | 0 m/s | 0 W/m² | - |
| 1778045534 | 16.67° C | 69% | 1008.6 hPa | 0 mm | 0 m/s | 0 W/m² | - |
| 1778045231 | 16.67° C | 70% | 1008.5 hPa | 0 mm | 0.45 m/s, 338° | 0 W/m² | - |
| 1778044930 | 16.67° C | 69% | 1008.7 hPa | 0 mm | 0 m/s | 0 W/m² | - |
| 1778044627 | 16.67° C | 69% | 1008.6 hPa | 0 mm | 0 m/s | 0 W/m² | - |
| 1778044323 | 16.67° C | 69% | 1008.5 hPa | 0 mm | 0 m/s | 0 W/m² | - |
| 1778044021 | 17.22° C | 68% | 1008.5 hPa | 0 mm | 0.45 m/s, 340° | 0 W/m² | - |
| 1778043718 | 17.22° C | 68% | 1008.7 hPa | 0 mm | 0 m/s | 0 W/m² | - |
| 1778043414 | 17.22° C | 68% | 1008.9 hPa | 0 mm | 0 m/s | 0 W/m² | - |
| 1778043111 | 16.67° C | 68% | 1008.7 hPa | 0 mm | 0.89 m/s, 8° | 0 W/m² | - |
| 1778042809 | 16.67° C | 69% | 1008.7 hPa | 0 mm | 0.45 m/s, 330° | 0 W/m² | - |
| 1778042505 | 17.22° C | 69% | 1008.8 hPa | 0 mm | 0 m/s | 0 W/m² | - |
| 1778042203 | 17.22° C | 68% | 1008.7 hPa | 0 mm | 0 m/s | 0 W/m² | - |
| 1778041900 | 17.78° C | 66% | 1008.8 hPa | 0 mm | 0 m/s | 0 W/m² | - |
| 1778041599 | 17.78° C | 65% | 1009 hPa | 0 mm | 0 m/s | 0 W/m² | - |
* Rain latest hour (hover to see other rain measurements)
** Current wind speed in m/s (hover to see current wind gust speed)